createdAt,value
2019-02-15T00:02:13.786Z,99.53
2019-02-15T00:04:43.076Z,110.70
2019-02-15T00:07:11.675Z,108.13
2019-02-15T00:09:40.180Z,118.20
2019-02-15T00:12:08.744Z,105.17
2019-02-15T00:14:48.140Z,106.10
2019-02-15T00:17:18.174Z,98.80
2019-02-15T00:19:48.368Z,81.23
2019-02-15T00:22:17.037Z,83.20
2019-02-15T00:24:45.764Z,76.83
2019-02-15T00:27:14.318Z,74.03
2019-02-15T00:29:42.972Z,87.90
2019-02-15T00:32:11.431Z,87.00
2019-02-15T00:34:39.988Z,95.33
2019-02-15T00:37:08.766Z,97.40
2019-02-15T00:39:38.828Z,92.17
2019-02-15T00:42:07.163Z,98.07
2019-02-15T00:44:36.059Z,95.27
2019-02-15T00:47:06.188Z,87.20
2019-02-15T00:49:36.588Z,97.90
2019-02-15T00:52:07.083Z,98.23
2019-02-15T00:54:42.824Z,116.53
2019-02-15T00:57:19.092Z,80.33
2019-02-15T00:59:55.055Z,70.37
2019-02-15T01:02:28.400Z,74.40
2019-02-15T01:04:58.427Z,90.80
2019-02-15T01:07:41.392Z,84.90
2019-02-15T01:10:11.795Z,69.37
2019-02-15T01:12:54.056Z,66.00
2019-02-15T01:15:22.858Z,77.37
2019-02-15T01:17:51.322Z,81.57
2019-02-15T01:20:19.671Z,86.03
2019-02-15T01:22:48.065Z,73.90
2019-02-15T01:25:16.922Z,73.83
2019-02-15T01:28:03.707Z,71.13
2019-02-15T01:30:33.866Z,68.33
2019-02-15T01:33:13.135Z,74.53
2019-02-15T01:35:43.269Z,65.80
2019-02-15T01:38:31.315Z,68.87
2019-02-15T01:41:19.521Z,65.37
2019-02-15T01:43:55.983Z,74.70
2019-02-15T01:46:26.178Z,96.53
2019-02-15T01:48:54.833Z,107.90
2019-02-15T01:51:23.357Z,100.07
2019-02-15T01:53:51.748Z,93.40
2019-02-15T01:56:20.135Z,131.53
2019-02-15T01:58:48.568Z,114.57
2019-02-15T02:01:18.808Z,111.10
2019-02-15T02:03:47.313Z,111.43
2019-02-15T02:06:16.026Z,104.13
2019-02-15T02:08:45.509Z,118.33
2019-02-15T02:11:14.007Z,106.43
2019-02-15T02:13:49.330Z,103.60
2019-02-15T02:16:12.482Z,130.07
2019-02-15T02:18:40.870Z,111.63
2019-02-15T02:21:09.385Z,118.20
2019-02-15T02:23:37.849Z,126.33
2019-02-15T02:26:06.844Z,107.80
2019-02-15T02:28:35.502Z,103.73
2019-02-15T02:31:03.956Z,105.37
2019-02-15T02:33:32.347Z,87.10
2019-02-15T02:36:01.064Z,110.50
2019-02-15T02:38:29.626Z,111.27
2019-02-15T02:40:58.197Z,118.90
2019-02-15T02:43:26.971Z,115.33
2019-02-15T02:45:55.629Z,118.30
2019-02-15T02:48:24.450Z,100.60
2019-02-15T02:50:53.455Z,100.93
2019-02-15T02:53:22.089Z,102.17
2019-02-15T02:55:50.731Z,105.73
2019-02-15T02:58:19.188Z,93.10
2019-02-15T03:00:47.920Z,97.27
2019-02-15T03:03:16.375Z,95.37
2019-02-15T03:05:45.333Z,83.93
2019-02-15T03:08:14.059Z,75.30
2019-02-15T03:10:43.563Z,82.33
2019-02-15T03:13:12.256Z,66.97
2019-02-15T03:15:40.760Z,63.57
2019-02-15T03:18:09.528Z,65.50
2019-02-15T03:20:37.957Z,57.00
2019-02-15T03:23:06.699Z,58.07
2019-02-15T03:25:35.355Z,60.20
2019-02-15T03:28:03.784Z,62.17
2019-02-15T03:30:32.419Z,58.27
2019-02-15T03:33:00.800Z,68.03
2019-02-15T03:35:29.233Z,69.13
2019-02-15T03:37:59.288Z,70.00
2019-02-15T03:40:29.322Z,66.43
2019-02-15T03:42:57.756Z,70.50
2019-02-15T03:45:26.640Z,79.33
2019-02-15T03:47:55.364Z,86.77
2019-02-15T03:50:24.337Z,68.83
2019-02-15T03:52:52.699Z,77.70
2019-02-15T03:55:21.160Z,76.50
2019-02-15T03:57:49.591Z,80.40
2019-02-15T04:00:18.288Z,90.40
2019-02-15T04:02:46.952Z,84.90
2019-02-15T04:05:15.782Z,80.43
2019-02-15T04:07:44.525Z,85.40
2019-02-15T04:10:12.908Z,81.47
2019-02-15T04:12:42.220Z,81.33
2019-02-15T04:15:10.990Z,81.63
2019-02-15T04:17:39.516Z,74.50
2019-02-15T04:20:09.242Z,72.47
2019-02-15T04:22:37.624Z,69.43
2019-02-15T04:25:06.760Z,73.30
2019-02-15T04:27:35.186Z,71.80
2019-02-15T04:30:03.655Z,63.47
2019-02-15T04:32:32.043Z,61.90
2019-02-15T04:35:00.667Z,63.53
2019-02-15T04:37:29.036Z,65.23
2019-02-15T04:39:57.556Z,64.60
2019-02-15T04:42:25.982Z,69.17
2019-02-15T04:44:54.386Z,57.27
2019-02-15T04:47:23.144Z,50.30
2019-02-15T04:49:51.986Z,43.47
2019-02-15T04:52:20.549Z,49.33
2019-02-15T04:54:49.335Z,55.87
2019-02-15T04:57:17.939Z,55.97
2019-02-15T04:59:46.327Z,52.13
2019-02-15T05:02:14.719Z,59.83
2019-02-15T05:04:43.153Z,67.47
2019-02-15T05:07:11.529Z,59.77
2019-02-15T05:09:40.069Z,54.23
2019-02-15T05:12:08.952Z,48.60
2019-02-15T05:14:38.346Z,53.20
2019-02-15T05:17:07.028Z,43.43
2019-02-15T05:19:35.736Z,54.20
2019-02-15T05:22:04.482Z,52.87
2019-02-15T05:24:33.128Z,64.80
2019-02-15T05:27:01.558Z,72.00
2019-02-15T05:29:30.218Z,72.83
2019-02-15T05:31:58.791Z,66.80
2019-02-15T05:34:27.401Z,67.37
2019-02-15T05:36:56.060Z,67.43
2019-02-15T05:39:24.560Z,65.80
2019-02-15T05:41:53.343Z,87.40
2019-02-15T05:44:21.733Z,112.97
2019-02-15T05:46:50.811Z,137.23
2019-02-15T05:49:19.704Z,160.90
2019-02-15T05:51:48.324Z,151.17
2019-02-15T05:54:17.282Z,99.57
2019-02-15T05:56:45.993Z,99.77
2019-02-15T05:59:14.488Z,99.30
2019-02-15T06:01:43.311Z,98.00
2019-02-15T06:04:11.733Z,155.73
2019-02-15T06:06:40.476Z,269.83
2019-02-15T06:09:08.874Z,150.07
2019-02-15T06:11:37.315Z,142.07
2019-02-15T06:14:05.712Z,159.50
2019-02-15T06:16:35.512Z,124.23
2019-02-15T06:19:04.400Z,145.10
2019-02-15T06:21:32.947Z,143.40
2019-02-15T06:24:01.881Z,155.63
2019-02-15T06:26:30.313Z,184.37
2019-02-15T06:28:58.704Z,179.37
2019-02-15T06:31:27.532Z,186.70
2019-02-15T06:33:56.384Z,179.90
2019-02-15T06:36:26.473Z,172.37
2019-02-15T06:38:54.868Z,149.60
2019-02-15T06:41:23.604Z,157.83
2019-02-15T06:43:52.340Z,134.97
2019-02-15T06:46:20.736Z,120.43
2019-02-15T06:48:49.444Z,132.40
2019-02-15T06:51:18.201Z,131.03
2019-02-15T06:53:46.730Z,155.73
2019-02-15T06:56:15.441Z,122.60
2019-02-15T06:58:45.911Z,129.38
2019-02-15T07:01:25.436Z,126.37
2019-02-15T07:04:04.484Z,128.20
2019-02-15T07:06:32.924Z,134.17
2019-02-15T07:09:01.319Z,116.07
2019-02-15T07:11:29.798Z,121.13
2019-02-15T07:13:58.905Z,126.37
2019-02-15T07:16:27.486Z,120.60
2019-02-15T07:18:56.479Z,147.53
2019-02-15T07:21:24.909Z,146.33
2019-02-15T07:23:53.305Z,140.00
2019-02-15T07:26:21.804Z,147.47
2019-02-15T07:28:50.348Z,164.00
2019-02-15T07:31:18.920Z,152.73
2019-02-15T07:33:47.696Z,150.83
2019-02-15T07:36:16.190Z,141.13
2019-02-15T07:38:44.868Z,143.73
2019-02-15T07:41:13.273Z,140.20
2019-02-15T07:43:41.988Z,144.50
2019-02-15T07:46:10.573Z,147.20
2019-02-15T07:48:38.954Z,151.17
2019-02-15T07:51:09.540Z,139.20
2019-02-15T07:53:37.992Z,154.07
2019-02-15T07:56:06.491Z,151.77
2019-02-15T07:58:34.928Z,159.63
2019-02-15T08:01:03.825Z,156.80
2019-02-15T08:03:32.263Z,155.90
2019-02-15T08:06:00.843Z,144.77
2019-02-15T08:08:29.423Z,143.67
2019-02-15T08:10:57.646Z,148.57
2019-02-15T08:13:25.856Z,160.67
2019-02-15T08:15:54.350Z,166.83
2019-02-15T08:18:22.608Z,151.50
2019-02-15T08:20:54.776Z,144.30
2019-02-15T08:23:22.949Z,150.23
2019-02-15T08:25:51.589Z,152.47
2019-02-15T08:28:19.860Z,160.57
2019-02-15T08:30:48.188Z,153.43
2019-02-15T08:33:16.475Z,157.67
2019-02-15T08:35:44.692Z,158.70
2019-02-15T08:38:13.187Z,143.80
2019-02-15T08:40:41.406Z,143.73
2019-02-15T08:43:09.805Z,144.30
2019-02-15T08:45:37.958Z,119.07
2019-02-15T08:48:06.555Z,116.53
2019-02-15T08:50:35.655Z,128.37
2019-02-15T08:53:04.116Z,121.13
2019-02-15T08:55:32.423Z,105.53
2019-02-15T08:58:00.746Z,113.50
2019-02-15T09:00:28.900Z,74.87
2019-02-15T09:02:57.067Z,70.87
2019-02-15T09:05:25.672Z,52.67
2019-02-15T09:07:54.059Z,49.70
2019-02-15T09:10:22.589Z,55.97
2019-02-15T09:12:50.843Z,58.47
2019-02-15T09:15:23.396Z,92.27
2019-02-15T09:17:51.711Z,71.43
2019-02-15T09:20:20.351Z,72.90
2019-02-15T09:22:49.817Z,61.30
2019-02-15T09:25:18.230Z,61.17
2019-02-15T09:27:51.596Z,61.10
2019-02-15T09:30:19.736Z,61.97
2019-02-15T09:32:48.050Z,62.20
2019-02-15T09:35:16.783Z,64.17
2019-02-15T09:37:45.424Z,68.13
2019-02-15T09:40:13.593Z,72.17
2019-02-15T09:42:42.142Z,63.90
2019-02-15T09:45:11.926Z,60.50
2019-02-15T09:47:40.152Z,59.03
2019-02-15T09:50:09.729Z,63.20
2019-02-15T09:52:39.226Z,39.87
2019-02-15T09:55:07.678Z,42.20
2019-02-15T09:57:36.509Z,54.90
2019-02-15T10:00:06.802Z,42.83
2019-02-15T10:02:37.197Z,39.47
2019-02-15T10:05:06.160Z,34.87
2019-02-15T10:07:35.347Z,33.80
2019-02-15T10:10:03.612Z,29.80
2019-02-15T10:12:31.939Z,29.60
2019-02-15T10:15:00.356Z,30.70
2019-02-15T10:17:28.848Z,31.83
2019-02-15T10:19:57.203Z,33.63
2019-02-15T10:22:25.356Z,76.43
2019-02-15T10:24:54.407Z,39.70
2019-02-15T10:27:23.027Z,54.30
2019-02-15T10:29:51.165Z,40.67
2019-02-15T10:32:19.921Z,32.47
2019-02-15T10:34:48.820Z,33.63
2019-02-15T10:37:17.105Z,33.43
2019-02-15T10:39:45.472Z,35.13
2019-02-15T10:42:14.124Z,32.90
2019-02-15T10:44:42.279Z,34.93
2019-02-15T10:47:14.396Z,31.00
2019-02-15T10:49:43.195Z,28.87
2019-02-15T10:52:11.347Z,31.33
2019-02-15T10:54:40.434Z,36.23
2019-02-15T10:57:08.807Z,46.27
2019-02-15T10:59:37.103Z,49.03
2019-02-15T11:02:05.252Z,37.07
2019-02-15T11:04:33.757Z,37.67
2019-02-15T11:07:01.923Z,41.37
2019-02-15T11:09:30.322Z,40.57
2019-02-15T11:11:59.082Z,34.83
2019-02-15T11:14:27.321Z,41.03
2019-02-15T11:16:55.494Z,32.13
2019-02-15T11:19:26.284Z,30.43
2019-02-15T11:21:54.430Z,32.00
2019-02-15T11:24:22.591Z,30.50
2019-02-15T11:26:52.107Z,29.90
2019-02-15T11:29:20.275Z,33.10
2019-02-15T11:31:48.618Z,33.53
2019-02-15T11:34:18.743Z,38.70
2019-02-15T11:36:47.073Z,35.30
2019-02-15T11:39:15.437Z,20.73
2019-02-15T11:41:43.779Z,36.00
2019-02-15T11:44:11.991Z,26.63
2019-02-15T11:46:40.215Z,25.10
2019-02-15T11:49:08.522Z,30.43
2019-02-15T11:51:36.982Z,27.57
2019-02-15T11:54:05.156Z,25.80
2019-02-15T11:56:33.736Z,21.53
2019-02-15T11:59:02.129Z,27.60
2019-02-15T12:01:30.276Z,22.63
2019-02-15T12:03:58.462Z,29.40
2019-02-15T12:06:27.087Z,24.93
2019-02-15T12:08:55.247Z,25.73
2019-02-15T12:11:23.486Z,22.10
2019-02-15T12:13:51.644Z,21.33
2019-02-15T12:16:19.994Z,24.33
2019-02-15T12:18:48.190Z,28.97
2019-02-15T12:21:16.737Z,28.33
2019-02-15T12:23:45.228Z,28.97
2019-02-15T12:26:13.765Z,23.90
2019-02-15T12:28:45.648Z,28.23
2019-02-15T12:31:14.571Z,24.57
2019-02-15T12:33:43.192Z,27.80
2019-02-15T12:36:11.984Z,26.30
2019-02-15T12:38:40.432Z,46.73
2019-02-15T12:41:08.910Z,24.83
2019-02-15T12:43:37.059Z,27.47
2019-02-15T12:46:05.607Z,26.00
2019-02-15T12:48:33.789Z,26.97
2019-02-15T12:51:01.966Z,26.77
2019-02-15T12:53:31.246Z,26.30
2019-02-15T12:55:59.711Z,27.03
2019-02-15T12:58:28.407Z,28.03
2019-02-15T13:00:56.944Z,27.13
2019-02-15T13:03:25.387Z,28.83
2019-02-15T13:05:53.784Z,26.73
2019-02-15T13:08:21.941Z,30.13
2019-02-15T13:10:50.645Z,28.00
2019-02-15T13:13:20.972Z,29.43
2019-02-15T13:15:49.340Z,29.77
2019-02-15T13:18:17.938Z,28.33
2019-02-15T13:20:46.303Z,28.33
2019-02-15T13:23:14.708Z,24.70
2019-02-15T13:25:42.958Z,26.87
2019-02-15T13:28:12.801Z,25.93
2019-02-15T13:30:42.331Z,26.97
2019-02-15T13:33:11.354Z,24.23
2019-02-15T13:35:39.522Z,32.00
2019-02-15T13:38:07.992Z,34.77
2019-02-15T13:40:36.698Z,34.33
2019-02-15T13:43:05.440Z,31.63
2019-02-15T13:45:33.869Z,26.30
2019-02-15T13:48:02.350Z,26.63
2019-02-15T13:50:30.795Z,25.23
2019-02-15T13:52:59.314Z,26.57
2019-02-15T13:55:27.834Z,23.97
2019-02-15T13:57:57.891Z,26.27
2019-02-15T14:00:28.058Z,25.17
2019-02-15T14:02:56.784Z,25.73
2019-02-15T14:05:25.314Z,25.47
2019-02-15T14:07:53.787Z,30.93
2019-02-15T14:10:22.573Z,25.10
2019-02-15T14:12:50.998Z,27.67
2019-02-15T14:15:20.164Z,25.77
2019-02-15T14:17:49.019Z,24.90
2019-02-15T14:20:17.573Z,25.17
2019-02-15T14:22:45.951Z,23.90
2019-02-15T14:25:14.400Z,24.40
2019-02-15T14:27:42.795Z,33.27
2019-02-15T14:30:13.483Z,25.57
2019-02-15T14:32:43.983Z,27.50
2019-02-15T14:35:14.648Z,23.60
2019-02-15T14:37:43.052Z,26.60
2019-02-15T14:40:12.746Z,25.07
2019-02-15T14:42:41.218Z,23.77
2019-02-15T14:45:13.227Z,29.33
2019-02-15T14:47:41.941Z,32.10
2019-02-15T14:50:10.731Z,33.63
2019-02-15T14:52:39.208Z,31.87
2019-02-15T14:55:08.275Z,31.33
2019-02-15T14:57:36.572Z,28.80
2019-02-15T15:00:09.641Z,31.40
2019-02-15T15:02:37.971Z,30.33
2019-02-15T15:05:06.807Z,28.83
2019-02-15T15:07:35.306Z,27.83
2019-02-15T15:10:06.023Z,29.87
2019-02-15T15:12:34.412Z,31.40
2019-02-15T15:15:02.830Z,36.03
2019-02-15T15:17:31.247Z,48.57
2019-02-15T15:19:59.569Z,37.13
2019-02-15T15:22:27.805Z,36.20
2019-02-15T15:24:55.998Z,33.67
2019-02-15T15:27:24.239Z,37.60
2019-02-15T15:29:52.410Z,62.63
2019-02-15T15:32:20.701Z,61.03
2019-02-15T15:34:49.987Z,73.67
2019-02-15T15:37:18.519Z,83.37
2019-02-15T15:39:46.706Z,85.43
2019-02-15T15:42:14.932Z,90.30
2019-02-15T15:44:43.088Z,87.47
2019-02-15T15:47:11.286Z,99.67
2019-02-15T15:49:39.783Z,112.13
2019-02-15T15:52:07.912Z,103.87
2019-02-15T15:54:36.172Z,87.47
2019-02-15T15:57:04.497Z,90.83
2019-02-15T15:59:32.842Z,113.43
2019-02-15T16:02:01.460Z,124.70
2019-02-15T16:04:29.683Z,119.77
2019-02-15T16:06:57.839Z,124.27
2019-02-15T16:09:26.055Z,118.57
2019-02-15T16:11:54.216Z,115.23
2019-02-15T16:14:22.410Z,177.07
2019-02-15T16:16:51.019Z,117.07
2019-02-15T16:19:19.188Z,123.40
2019-02-15T16:21:47.534Z,122.47
2019-02-15T16:24:16.082Z,142.70
2019-02-15T16:26:44.241Z,165.90
2019-02-15T16:29:13.935Z,152.13
2019-02-15T16:31:42.389Z,139.93
2019-02-15T16:34:10.551Z,146.10
2019-02-15T16:36:40.226Z,149.50
2019-02-15T16:39:08.643Z,162.13
2019-02-15T16:41:36.813Z,166.90
2019-02-15T16:44:05.137Z,175.17
2019-02-15T16:46:33.445Z,206.47
2019-02-15T16:49:01.935Z,217.77
2019-02-15T16:51:30.099Z,225.47
2019-02-15T16:53:58.442Z,226.43
2019-02-15T16:56:26.656Z,208.43
2019-02-15T16:58:55.178Z,172.90
2019-02-15T17:01:23.385Z,223.27
2019-02-15T17:03:51.569Z,274.20
2019-02-15T17:06:19.763Z,239.43
2019-02-15T17:08:48.072Z,230.93
2019-02-15T17:11:16.215Z,219.20
2019-02-15T17:13:44.472Z,253.47
2019-02-15T17:16:12.660Z,240.63
2019-02-15T17:18:51.164Z,218.90
2019-02-15T17:21:11.137Z,221.60
2019-02-15T17:23:39.353Z,232.87
2019-02-15T17:26:07.713Z,213.37
2019-02-15T17:28:36.192Z,193.47
2019-02-15T17:31:04.482Z,190.23
2019-02-15T17:33:32.668Z,203.77
2019-02-15T17:36:00.907Z,195.80
2019-02-15T17:38:30.000Z,194.53
2019-02-15T17:40:58.494Z,192.30
2019-02-15T17:43:26.916Z,180.00
2019-02-15T17:45:55.693Z,210.73
2019-02-15T17:48:24.169Z,214.63
2019-02-15T17:50:52.334Z,219.97
2019-02-15T17:53:20.666Z,203.80
2019-02-15T17:55:49.135Z,173.90
2019-02-15T17:58:17.423Z,168.97
2019-02-15T18:00:45.639Z,204.93
2019-02-15T18:03:14.544Z,201.77
2019-02-15T18:05:42.833Z,168.50
2019-02-15T18:08:11.063Z,165.60
2019-02-15T18:10:39.292Z,170.13
2019-02-15T18:13:07.562Z,202.80
2019-02-15T18:15:35.891Z,291.63
2019-02-15T18:18:04.146Z,277.50
2019-02-15T18:20:32.557Z,211.80
2019-02-15T18:23:01.028Z,189.90
2019-02-15T18:25:29.310Z,190.23
2019-02-15T18:27:57.464Z,176.73
2019-02-15T18:30:26.040Z,177.63
2019-02-15T18:32:54.677Z,165.70
2019-02-15T18:35:22.952Z,152.80
2019-02-15T18:37:51.330Z,167.80
2019-02-15T18:40:20.613Z,165.07
2019-02-15T18:42:48.774Z,164.70
2019-02-15T18:45:17.019Z,164.10
2019-02-15T18:47:45.226Z,256.50
2019-02-15T18:50:13.577Z,238.83
2019-02-15T18:52:41.861Z,255.67
2019-02-15T18:55:10.469Z,307.53
2019-02-15T18:57:38.730Z,278.77
2019-02-15T19:00:08.873Z,190.20
2019-02-15T19:02:37.446Z,128.70
2019-02-15T19:05:07.432Z,146.57
2019-02-15T19:07:35.826Z,159.00
2019-02-15T19:10:05.827Z,286.17
2019-02-15T19:12:34.302Z,265.37
2019-02-15T19:15:03.966Z,248.00
2019-02-15T19:17:32.704Z,215.80
2019-02-15T19:20:01.021Z,182.80
2019-02-15T19:22:30.047Z,206.50
2019-02-15T19:24:58.339Z,206.93
2019-02-15T19:27:26.515Z,201.10
2019-02-15T19:29:54.811Z,182.37
2019-02-15T19:32:23.062Z,175.17
2019-02-15T19:34:51.454Z,174.80
2019-02-15T19:37:22.060Z,186.60
2019-02-15T19:39:50.262Z,180.00
2019-02-15T19:42:21.405Z,219.00
2019-02-15T19:44:49.996Z,222.70
2019-02-15T19:47:18.237Z,231.73
2019-02-15T19:49:46.473Z,224.07
2019-02-15T19:52:15.329Z,184.47
2019-02-15T19:54:44.209Z,176.97
2019-02-15T19:57:12.812Z,170.57
2019-02-15T19:59:41.360Z,167.50
2019-02-15T20:02:09.590Z,155.50
2019-02-15T20:04:37.930Z,180.73
2019-02-15T20:07:06.068Z,212.47
2019-02-15T20:09:34.683Z,261.07
2019-02-15T20:12:02.840Z,216.77
2019-02-15T20:14:31.439Z,220.53
2019-02-15T20:16:59.778Z,224.70
2019-02-15T20:19:28.335Z,231.53
2019-02-15T20:21:58.285Z,172.43
2019-02-15T20:24:26.439Z,160.00
2019-02-15T20:26:54.684Z,175.90
2019-02-15T20:29:22.890Z,179.07
2019-02-15T20:31:51.313Z,148.03
2019-02-15T20:34:19.490Z,162.17
2019-02-15T20:36:48.556Z,178.77
2019-02-15T20:39:16.975Z,199.60
2019-02-15T20:41:45.581Z,195.57
2019-02-15T20:44:15.107Z,215.20
2019-02-15T20:46:43.497Z,190.53
2019-02-15T20:49:11.807Z,192.97
2019-02-15T20:51:40.485Z,186.27
2019-02-15T20:54:09.529Z,164.17
2019-02-15T20:56:38.178Z,179.83
2019-02-15T20:59:06.945Z,187.77
2019-02-15T21:01:35.427Z,169.03
2019-02-15T21:04:03.985Z,169.40
2019-02-15T21:06:32.699Z,171.33
2019-02-15T21:09:01.482Z,189.03
2019-02-15T21:11:30.716Z,199.80
2019-02-15T21:13:59.224Z,194.17
2019-02-15T21:16:27.711Z,209.73
2019-02-15T21:18:56.094Z,232.43
2019-02-15T21:21:24.400Z,235.30
2019-02-15T21:23:52.923Z,222.47
2019-02-15T21:26:21.028Z,234.33
2019-02-15T21:28:49.224Z,222.43
2019-02-15T21:31:17.420Z,244.20
2019-02-15T21:33:45.963Z,224.53
2019-02-15T21:36:14.399Z,233.47
2019-02-15T21:38:44.191Z,242.90
2019-02-15T21:41:12.366Z,242.90
2019-02-15T21:43:40.647Z,264.37
2019-02-15T21:46:09.991Z,264.27
2019-02-15T21:48:38.512Z,252.93
2019-02-15T21:51:06.741Z,257.17
2019-02-15T21:53:34.922Z,229.67
2019-02-15T21:56:03.246Z,252.93
2019-02-15T21:58:31.465Z,246.30
2019-02-15T22:01:01.442Z,253.90
2019-02-15T22:03:29.863Z,267.90
2019-02-15T22:05:58.139Z,286.97
2019-02-15T22:08:27.714Z,289.67
2019-02-15T22:10:56.052Z,312.03
2019-02-15T22:13:24.483Z,387.93
2019-02-15T22:15:52.654Z,296.13
2019-02-15T22:18:21.046Z,263.03
2019-02-15T22:20:49.243Z,264.13
2019-02-15T22:23:17.684Z,223.83
2019-02-15T22:25:46.449Z,204.63
2019-02-15T22:28:14.730Z,206.97
2019-02-15T22:30:42.898Z,168.73
2019-02-15T22:33:11.627Z,202.40
2019-02-15T22:35:39.844Z,213.80
2019-02-15T22:38:08.808Z,305.47
2019-02-15T22:40:38.926Z,302.13
2019-02-15T22:43:08.767Z,226.33
2019-02-15T22:45:39.907Z,165.43
2019-02-15T22:48:08.914Z,182.70
2019-02-15T22:50:37.507Z,153.70
2019-02-15T22:53:05.674Z,185.13
2019-02-15T22:55:34.023Z,292.57
2019-02-15T22:58:04.461Z,278.50
2019-02-15T23:00:56.549Z,271.07
2019-02-15T23:03:25.702Z,382.47
2019-02-15T23:05:54.182Z,357.23
2019-02-15T23:08:22.814Z,350.60
2019-02-15T23:10:51.277Z,392.67
2019-02-15T23:13:19.955Z,405.43
2019-02-15T23:15:48.615Z,405.27
2019-02-15T23:18:18.887Z,456.77
2019-02-15T23:20:47.240Z,438.53
2019-02-15T23:23:15.401Z,296.83
2019-02-15T23:25:43.636Z,230.47
2019-02-15T23:28:11.804Z,211.77
2019-02-15T23:30:41.143Z,226.37
2019-02-15T23:33:09.524Z,230.60
2019-02-15T23:35:37.675Z,186.77
2019-02-15T23:38:05.838Z,201.53
2019-02-15T23:40:34.176Z,210.60
2019-02-15T23:43:02.712Z,188.00
2019-02-15T23:45:31.204Z,208.43
2019-02-15T23:47:59.423Z,188.73
2019-02-15T23:50:28.694Z,193.90
2019-02-15T23:52:56.841Z,188.77
2019-02-15T23:55:25.027Z,188.77
2019-02-15T23:57:53.193Z,187.20
